Time;durP1;ratioP1;P1;durP2;ratioP2;P2;SDS_P1;SDS_P2;PMS_P1;PMS_P2;Temp;Humidity;BMP_temperature;BMP_pressure;BME280_temperature;BME280_humidity;BME280_pressure;Samples;Min_cycle;Max_cycle;Signal;HPM_P1;HPM_P2
2023/03/17 00:02:01;;;;;;;14.77;2.88;;;14.20;99.90;;;;;;7391068;19;19918;-75
2023/03/17 00:04:27;;;;;;;9.70;2.67;;;14.20;99.90;;;;;;7403466;19;19918;-75
2023/03/17 00:06:53;;;;;;;9.23;2.50;;;14.20;99.90;;;;;;7410112;19;19926;-74
2023/03/17 00:09:21;;;;;;;;;;;14.20;99.90;;;;;;7372471;19;19915;-76
2023/03/17 00:11:47;;;;;;;14.13;2.80;;;14.20;99.90;;;;;;7407065;19;19915;-75
2023/03/17 00:14:13;;;;;;;;;;;14.20;99.90;;;;;;7408096;19;19943;-75
2023/03/17 00:16:42;;;;;;;8.75;2.55;;;14.30;99.90;;;;;;7409492;19;20331;-75
2023/03/17 00:19:25;;;;;;;12.63;2.95;;;14.20;99.90;;;;;;7406498;19;19965;-75
2023/03/17 00:21:51;;;;;;;17.13;2.75;;;14.20;99.90;;;;;;7406022;19;19955;-75
2023/03/17 00:24:19;;;;;;;11.75;2.70;;;14.30;99.90;;;;;;7404501;19;20335;-73
2023/03/17 00:26:45;;;;;;;11.40;2.50;;;14.20;99.90;;;;;;7406545;19;20072;-74
2023/03/17 00:29:10;;;;;;;12.98;2.85;;;14.20;99.90;;;;;;7406324;19;20339;-75
2023/03/17 00:31:37;;;;;;;10.55;2.97;;;14.20;99.90;;;;;;7405580;19;20354;-75
2023/03/17 00:34:22;;;;;;;;;;;14.20;99.90;;;;;;7408178;19;19918;-74
2023/03/17 00:37:26;;;;;;;15.32;3.22;;;14.20;99.90;;;;;;7405290;19;19911;-73
2023/03/17 00:40:29;;;;;;;14.45;3.00;;;14.20;99.90;;;;;;7402828;19;19918;-75
2023/03/17 00:43:32;;;;;;;12.55;2.90;;;14.20;99.90;;;;;;7402588;19;19910;-75
2023/03/17 00:46:36;;;;;;;12.13;3.08;;;14.20;99.90;;;;;;7404588;19;19915;-75
2023/03/17 00:49:40;;;;;;;9.93;2.58;;;14.20;99.90;;;;;;7398206;19;19915;-75
2023/03/17 00:52:43;;;;;;;13.30;2.75;;;14.10;99.90;;;;;;7404011;19;20011;-73
2023/03/17 00:55:47;;;;;;;11.02;3.08;;;14.10;99.90;;;;;;7405926;19;19922;-74
2023/03/17 00:58:51;;;;;;;12.40;3.10;;;14.00;99.90;;;;;;7406139;19;19915;-74
2023/03/17 01:01:55;;;;;;;12.43;3.00;;;14.10;99.90;;;;;;7400569;19;19970;-74
2023/03/17 01:04:59;;;;;;;12.07;2.95;;;14.10;99.90;;;;;;7403158;19;19966;-77
2023/03/17 01:08:02;;;;;;;14.50;2.95;;;13.90;99.90;;;;;;7407388;19;19922;-73
2023/03/17 01:11:06;;;;;;;10.88;2.83;;;13.90;99.90;;;;;;7405608;19;20017;-73
2023/03/17 01:14:09;;;;;;;12.85;3.92;;;13.90;99.90;;;;;;7404627;19;19918;-73
2023/03/17 01:16:35;;;;;;;11.82;3.10;;;13.90;99.90;;;;;;7404480;19;20252;-74
2023/03/17 01:19:01;;;;;;;14.02;3.50;;;13.90;99.90;;;;;;7382815;19;19982;-74
2023/03/17 01:21:27;;;;;;;10.65;2.97;;;13.80;99.90;;;;;;7403407;19;19977;-74
2023/03/17 01:23:53;;;;;;;11.77;2.63;;;13.90;99.90;;;;;;7402898;19;20485;-73
2023/03/17 01:26:19;;;;;;;11.95;3.08;;;13.90;99.90;;;;;;7405857;19;20354;-74
2023/03/17 01:28:45;;;;;;;11.60;3.20;;;13.90;99.90;;;;;;7407759;19;19918;-75
2023/03/17 01:31:11;;;;;;;12.32;3.05;;;13.80;99.90;;;;;;7406456;19;19953;-74
2023/03/17 01:33:37;;;;;;;14.20;3.22;;;13.80;99.90;;;;;;7384386;19;19969;-75
2023/03/17 01:36:03;;;;;;;13.70;3.35;;;13.70;99.90;;;;;;7398655;19;19925;-73
2023/03/17 01:38:29;;;;;;;12.02;3.60;;;13.70;99.90;;;;;;7399373;19;20357;-74
2023/03/17 01:40:55;;;;;;;11.13;2.83;;;13.70;99.90;;;;;;7405794;19;19923;-74
2023/03/17 01:43:28;;;;;;;14.00;3.40;;;13.80;99.90;;;;;;7404668;19;20319;-74
2023/03/17 01:46:19;;;;;;;10.95;2.47;;;13.80;99.90;;;;;;7407449;19;19946;-74
2023/03/17 01:48:57;;;;;;;14.05;2.97;;;13.90;99.90;;;;;;7404263;19;19955;-74
2023/03/17 01:51:35;;;;;;;17.27;3.53;;;13.90;99.90;;;;;;7405104;19;19935;-74
2023/03/17 01:54:05;;;;;;;11.48;2.92;;;13.90;99.90;;;;;;7407183;19;19929;-74
2023/03/17 01:56:32;;;;;;;9.55;2.35;;;13.80;99.90;;;;;;7405314;19;19921;-74
2023/03/17 01:59:01;;;;;;;11.80;2.65;;;13.90;99.90;;;;;;7405145;19;19907;-75
2023/03/17 02:01:34;;;;;;;14.00;3.03;;;13.90;99.90;;;;;;7406091;19;19906;-74
2023/03/17 02:04:00;;;;;;;9.30;2.42;;;13.80;99.90;;;;;;7406978;19;20310;-75
2023/03/17 02:06:26;;;;;;;9.18;2.35;;;13.80;99.90;;;;;;7370361;19;20343;-75
2023/03/17 02:08:52;;;;;;;9.77;2.10;;;13.80;99.90;;;;;;7407156;19;19914;-74
2023/03/17 02:11:19;;;;;;;9.77;2.60;;;13.80;99.90;;;;;;7402436;19;20026;-73
2023/03/17 02:13:45;;;;;;;13.48;2.78;;;13.80;99.90;;;;;;7406487;19;20451;-75
2023/03/17 02:16:17;;;;;;;13.93;2.67;;;13.90;99.90;;;;;;7404223;19;19921;-74
2023/03/17 02:18:44;;;;;;;10.82;2.33;;;13.90;99.90;;;;;;7407948;19;19914;-74
2023/03/17 02:21:30;;;;;;;14.23;3.00;;;13.90;99.90;;;;;;7404948;19;20401;-75
2023/03/17 02:23:59;;;;;;;14.90;2.47;;;13.80;99.90;;;;;;7408757;19;20467;-74
2023/03/17 02:26:27;;;;;;;11.95;2.60;;;13.80;99.90;;;;;;7401159;19;20677;-74
2023/03/17 02:28:53;;;;;;;12.57;2.45;;;13.70;99.90;;;;;;7404966;19;19939;-75
2023/03/17 02:31:20;;;;;;;16.30;3.35;;;13.60;99.90;;;;;;7403661;19;19918;-74
2023/03/17 02:33:45;;;;;;;10.98;3.10;;;13.60;99.90;;;;;;7408259;19;19997;-75
2023/03/17 02:36:11;;;;;;;12.82;2.63;;;13.60;99.90;;;;;;7402149;19;19922;-75
2023/03/17 02:38:37;;;;;;;12.90;3.00;;;13.60;99.90;;;;;;7403883;19;19923;-75
2023/03/17 02:41:03;;;;;;;10.80;2.35;;;13.70;99.90;;;;;;7402037;19;19914;-77
2023/03/17 02:43:28;;;;;;;13.50;2.63;;;13.70;99.90;;;;;;7403953;19;19922;-75
2023/03/17 02:45:54;;;;;;;9.73;2.83;;;13.60;99.90;;;;;;7405518;19;19939;-74
2023/03/17 02:48:22;;;;;;;13.63;3.00;;;13.60;99.90;;;;;;7399563;19;19915;-74
2023/03/17 02:50:48;;;;;;;13.70;2.63;;;13.60;99.90;;;;;;7403593;19;19919;-74
2023/03/17 02:53:14;;;;;;;14.75;2.58;;;13.40;99.90;;;;;;7404697;19;19919;-74
2023/03/17 02:55:40;;;;;;;12.13;2.55;;;13.40;99.90;;;;;;7403425;19;19947;-77
2023/03/17 02:58:07;;;;;;;14.00;3.17;;;13.20;99.90;;;;;;7404579;19;19922;-75
2023/03/17 03:00:33;;;;;;;11.35;2.75;;;13.10;99.90;;;;;;7371799;19;20023;-74
2023/03/17 03:02:59;;;;;;;12.00;2.55;;;13.00;99.90;;;;;;7405725;19;19918;-74
2023/03/17 03:05:25;;;;;;;13.05;2.72;;;12.90;99.90;;;;;;7401755;19;19921;-75
2023/03/17 03:07:51;;;;;;;13.60;2.38;;;12.80;99.90;;;;;;7383499;19;20334;-75
2023/03/17 03:10:17;;;;;;;14.93;2.55;;;12.80;99.90;;;;;;7401649;19;19938;-74
2023/03/17 03:12:44;;;;;;;15.43;3.45;;;12.70;99.90;;;;;;7404102;19;20256;-76
2023/03/17 03:15:10;;;;;;;11.02;2.55;;;12.70;99.90;;;;;;7400166;19;19949;-74
2023/03/17 03:17:36;;;;;;;9.15;2.67;;;12.70;99.90;;;;;;7403497;19;19986;-74
2023/03/17 03:20:03;;;;;;;9.70;2.20;;;12.60;99.90;;;;;;7401783;19;20316;-74
2023/03/17 03:22:29;;;;;;;14.98;2.50;;;12.60;99.90;;;;;;7402732;19;20490;-75
2023/03/17 03:24:54;;;;;;;10.85;2.13;;;12.60;99.90;;;;;;7401559;19;19915;-73
2023/03/17 03:27:20;;;;;;;12.75;2.50;;;12.60;99.90;;;;;;7403212;19;19926;-75
2023/03/17 03:29:46;;;;;;;13.27;2.35;;;12.60;99.90;;;;;;7404222;19;19943;-75
2023/03/17 03:32:12;;;;;;;12.35;2.45;;;12.50;99.90;;;;;;7401377;19;19918;-74
2023/03/17 03:34:38;;;;;;;16.45;2.83;;;12.40;99.90;;;;;;7405199;19;19966;-76
2023/03/17 03:37:04;;;;;;;11.23;2.45;;;12.50;99.90;;;;;;7402180;19;19915;-75
2023/03/17 03:39:30;;;;;;;11.88;2.63;;;12.40;99.90;;;;;;7388491;19;19918;-74
2023/03/17 03:41:57;;;;;;;11.35;2.53;;;12.50;99.90;;;;;;7408060;19;19926;-75
2023/03/17 03:44:23;;;;;;;11.95;2.45;;;12.50;99.90;;;;;;7408351;19;19938;-75
2023/03/17 03:46:49;;;;;;;13.00;2.60;;;12.60;99.90;;;;;;7410859;19;19927;-75
2023/03/17 03:49:15;;;;;;;13.88;2.75;;;12.70;99.90;;;;;;7407436;19;19922;-74
2023/03/17 03:51:41;;;;;;;15.73;2.65;;;12.80;99.90;;;;;;7408440;19;19919;-74
2023/03/17 03:54:06;;;;;;;13.77;2.28;;;12.90;99.90;;;;;;7409457;19;20366;-74
2023/03/17 03:56:32;;;;;;;13.88;2.60;;;13.00;99.90;;;;;;7409977;19;19966;-74
2023/03/17 03:58:58;;;;;;;12.18;2.42;;;13.00;99.90;;;;;;7409713;19;19919;-75
2023/03/17 04:01:24;;;;;;;12.52;2.47;;;13.00;99.90;;;;;;7405010;19;20252;-73
2023/03/17 04:03:50;;;;;;;11.75;2.10;;;13.00;99.90;;;;;;7409497;19;19910;-76
2023/03/17 04:06:16;;;;;;;11.50;2.38;;;13.00;99.90;;;;;;7409729;19;19929;-73
2023/03/17 04:08:42;;;;;;;10.60;2.35;;;12.90;99.90;;;;;;7408559;19;19948;-75
2023/03/17 04:11:07;;;;;;;15.90;3.35;;;12.90;99.90;;;;;;7407462;19;19911;-75
2023/03/17 04:13:33;;;;;;;12.10;2.60;;;12.90;99.90;;;;;;7407032;19;19919;-73
2023/03/17 04:16:00;;;;;;;11.43;2.10;;;13.00;99.90;;;;;;7375022;19;19911;-75
2023/03/17 04:18:27;;;;;;;13.15;2.38;;;13.00;99.90;;;;;;7407661;19;19914;-75
2023/03/17 04:20:53;;;;;;;13.90;2.15;;;13.00;99.90;;;;;;7410647;19;19919;-74
2023/03/17 04:23:19;;;;;;;11.75;2.38;;;13.10;99.90;;;;;;7408914;19;19941;-73
2023/03/17 04:25:45;;;;;;;11.65;2.00;;;13.00;99.90;;;;;;7410370;19;19915;-73
2023/03/17 04:28:11;;;;;;;12.18;2.30;;;13.00;99.90;;;;;;7356531;19;19915;-74
2023/03/17 04:30:37;;;;;;;10.73;2.13;;;12.90;99.90;;;;;;7411203;19;19940;-74
2023/03/17 04:33:03;;;;;;;7.72;2.05;;;12.90;99.90;;;;;;7405350;19;20524;-73
2023/03/17 04:35:29;;;;;;;12.15;2.72;;;12.90;99.90;;;;;;7377495;19;20343;-74
2023/03/17 04:37:55;;;;;;;11.63;1.80;;;12.80;99.90;;;;;;7411819;19;19942;-74
2023/03/17 04:40:21;;;;;;;10.77;2.63;;;12.70;99.90;;;;;;7407535;19;19922;-73
2023/03/17 04:42:46;;;;;;;7.90;2.08;;;12.70;99.90;;;;;;7408193;19;19941;-74
2023/03/17 04:45:16;;;;;;;11.98;2.10;;;12.70;99.90;;;;;;7405587;19;19915;-73
2023/03/17 04:47:44;;;;;;;9.98;1.85;;;12.70;99.90;;;;;;7408790;19;19922;-74
2023/03/17 04:50:11;;;;;;;11.90;2.45;;;12.60;99.90;;;;;;7404124;19;19915;-74
2023/03/17 04:52:36;;;;;;;9.88;2.30;;;12.70;99.90;;;;;;7409589;19;19922;-74
2023/03/17 04:55:04;;;;;;;12.88;2.03;;;12.60;99.90;;;;;;7405178;19;19911;-74
2023/03/17 04:57:30;;;;;;;10.60;1.88;;;12.50;99.90;;;;;;7406666;19;19963;-74
2023/03/17 04:59:56;;;;;;;10.80;2.30;;;12.40;99.90;;;;;;7405048;19;20331;-74
2023/03/17 05:02:22;;;;;;;7.72;1.95;;;12.30;99.90;;;;;;7406581;19;21823;-74
2023/03/17 05:04:48;;;;;;;11.95;1.90;;;12.20;99.90;;;;;;7406807;19;19949;-74
2023/03/17 05:07:14;;;;;;;9.80;2.55;;;12.20;99.90;;;;;;7385286;19;19918;-77
2023/03/17 05:09:40;;;;;;;14.40;2.00;;;12.10;99.90;;;;;;7406813;19;19935;-74
2023/03/17 05:12:08;;;;;;;12.55;2.42;;;12.10;99.90;;;;;;7406923;19;19922;-74
2023/03/17 05:14:33;;;;;;;15.40;2.92;;;12.00;99.90;;;;;;7405636;19;19925;-74
2023/03/17 05:16:59;;;;;;;12.07;2.42;;;11.90;99.90;;;;;;7408117;19;20336;-74
2023/03/17 05:19:25;;;;;;;11.95;2.03;;;11.90;99.90;;;;;;7404664;19;19914;-74
2023/03/17 05:21:51;;;;;;;12.73;2.22;;;12.00;99.90;;;;;;7408030;19;19925;-74
2023/03/17 05:24:17;;;;;;;15.20;3.05;;;12.00;99.90;;;;;;7406057;19;19914;-75
2023/03/17 05:26:44;;;;;;;14.25;2.05;;;12.10;99.90;;;;;;7408091;19;19918;-75
2023/03/17 05:29:11;;;;;;;11.65;1.77;;;12.20;99.90;;;;;;7408059;19;19926;-73
2023/03/17 05:31:37;;;;;;;10.30;1.98;;;12.30;99.90;;;;;;7407023;19;19915;-75
2023/03/17 05:34:04;;;;;;;9.93;1.92;;;12.40;99.90;;;;;;7406294;19;19926;-75
2023/03/17 05:36:33;;;;;;;8.13;2.17;;;12.50;99.90;;;;;;7406142;19;19922;-75
2023/03/17 05:38:58;;;;;;;9.27;1.90;;;12.60;99.90;;;;;;7407838;19;19917;-74
2023/03/17 05:41:25;;;;;;;11.60;2.17;;;12.60;99.90;;;;;;7407351;19;20334;-74
2023/03/17 05:43:51;;;;;;;9.07;2.03;;;12.70;99.90;;;;;;7409110;19;19919;-74
2023/03/17 05:46:17;;;;;;;9.05;2.15;;;12.80;99.90;;;;;;7408348;19;19944;-75
2023/03/17 05:48:43;;;;;;;11.35;2.20;;;12.90;99.90;;;;;;7407305;19;19918;-75
2023/03/17 05:51:09;;;;;;;10.52;1.90;;;12.80;99.90;;;;;;7407045;19;19919;-74
2023/03/17 05:53:35;;;;;;;10.90;2.05;;;12.70;99.90;;;;;;7406595;19;20000;-74
2023/03/17 05:56:01;;;;;;;11.80;1.88;;;12.80;99.90;;;;;;7409061;19;19922;-74
2023/03/17 05:58:26;;;;;;;9.13;2.10;;;12.90;99.90;;;;;;7408600;19;19926;-74
2023/03/17 06:00:52;;;;;;;6.25;1.80;;;12.90;99.90;;;;;;7406253;19;19914;-74
2023/03/17 06:03:18;;;;;;;11.93;1.88;;;12.90;99.90;;;;;;7406829;19;20062;-75
2023/03/17 06:05:45;;;;;;;9.82;2.13;;;13.00;99.90;;;;;;7407652;19;20794;-74
2023/03/17 06:08:11;;;;;;;9.55;1.58;;;13.00;99.90;;;;;;7404904;19;19918;-74
2023/03/17 06:10:37;;;;;;;9.55;1.88;;;13.00;99.90;;;;;;7407982;19;19957;-75
2023/03/17 06:13:03;;;;;;;10.05;1.75;;;13.00;99.90;;;;;;7404677;19;19922;-75
2023/03/17 06:15:29;;;;;;;10.18;2.15;;;13.10;99.90;;;;;;7389270;19;19926;-75
2023/03/17 06:17:55;;;;;;;12.48;1.98;;;13.10;99.90;;;;;;7373254;19;19919;-74
2023/03/17 06:20:21;;;;;;;8.75;2.45;;;13.20;99.90;;;;;;7402432;19;20360;-74
2023/03/17 06:22:47;;;;;;;9.55;1.80;;;13.20;99.90;;;;;;7406945;19;20785;-77
2023/03/17 06:25:14;;;;;;;9.70;1.95;;;13.20;99.90;;;;;;7405530;19;19944;-74
2023/03/17 06:27:41;;;;;;;8.65;1.80;;;13.20;99.90;;;;;;7403935;19;19911;-76
2023/03/17 06:30:08;;;;;;;15.82;2.20;;;13.20;99.90;;;;;;7403592;19;19915;-74
2023/03/17 06:32:34;;;;;;;11.45;2.40;;;13.30;99.90;;;;;;7405972;19;19943;-74
2023/03/17 06:35:02;;;;;;;13.02;2.53;;;13.30;99.90;;;;;;7407115;19;19918;-74
2023/03/17 06:37:28;;;;;;;12.25;2.38;;;13.40;99.90;;;;;;7403572;19;19925;-75
2023/03/17 06:39:56;;;;;;;8.98;1.98;;;13.50;99.90;;;;;;7405726;19;19922;-74
2023/03/17 06:42:22;;;;;;;10.93;1.80;;;13.50;99.90;;;;;;7405429;19;19941;-76
2023/03/17 06:44:51;;;;;;;8.98;1.75;;;13.60;99.90;;;;;;7407866;19;19915;-75
2023/03/17 06:47:18;;;;;;;11.85;2.58;;;13.50;99.90;;;;;;7402447;19;19930;-74
2023/03/17 06:49:44;;;;;;;9.63;2.30;;;13.50;99.90;;;;;;7402499;19;19951;-73
2023/03/17 06:52:10;;;;;;;12.52;2.08;;;13.50;99.90;;;;;;7397280;19;19923;-75
2023/03/17 06:54:36;;;;;;;11.98;2.40;;;13.50;99.90;;;;;;7404648;19;19923;-74
2023/03/17 06:57:02;;;;;;;7.45;2.10;;;13.50;99.90;;;;;;7400740;19;19918;-74
2023/03/17 06:59:31;;;;;;;9.45;1.63;;;13.50;99.90;;;;;;7404239;19;19926;-73
2023/03/17 07:01:57;;;;;;;9.80;1.85;;;13.50;99.90;;;;;;7404400;19;19915;-73
2023/03/17 07:04:24;;;;;;;12.07;2.55;;;13.50;99.90;;;;;;7399560;19;19931;-73
2023/03/17 07:06:50;;;;;;;12.15;2.50;;;13.60;99.90;;;;;;7404635;19;19922;-74
2023/03/17 07:09:17;;;;;;;12.00;2.63;;;13.60;99.90;;;;;;7399382;19;19919;-76
2023/03/17 07:11:43;;;;;;;;;;;13.60;99.90;;;;;;7407394;19;19968;-73
2023/03/17 07:14:08;;;;;;;10.50;2.28;;;13.60;99.90;;;;;;7405962;19;19927;-73
2023/03/17 07:16:34;;;;;;;12.30;2.72;;;13.60;99.90;;;;;;7409658;19;19929;-73
2023/03/17 07:19:00;;;;;;;12.38;2.17;;;13.60;99.90;;;;;;7407330;19;19914;-74
2023/03/17 07:21:26;;;;;;;13.75;2.22;;;13.60;99.90;;;;;;7404769;19;19906;-73
2023/03/17 07:23:53;;;;;;;15.68;4.88;;;13.60;99.90;;;;;;7377197;19;20348;-73
2023/03/17 07:26:19;;;;;;;8.40;2.05;;;13.60;99.90;;;;;;7408076;19;19919;-73
2023/03/17 07:28:45;;;;;;;18.70;2.42;;;13.70;99.90;;;;;;7408840;19;19914;-73
2023/03/17 07:31:13;;;;;;;12.32;2.53;;;13.70;99.90;;;;;;7406546;19;19907;-73
2023/03/17 07:33:39;;;;;;;13.20;2.08;;;13.80;99.90;;;;;;7406353;19;19915;-73
2023/03/17 07:36:07;;;;;;;14.60;2.63;;;13.80;99.90;;;;;;7407459;19;19906;-73
2023/03/17 07:38:33;;;;;;;14.40;2.40;;;13.90;99.90;;;;;;7408684;19;19918;-76
2023/03/17 07:40:59;;;;;;;8.32;2.42;;;14.00;99.90;;;;;;7400202;19;20002;-74
2023/03/17 07:43:25;;;;;;;12.82;2.47;;;14.20;99.90;;;;;;7385527;19;19919;-75
2023/03/17 07:45:51;;;;;;;12.23;2.90;;;14.40;99.90;;;;;;7407245;19;19911;-74
2023/03/17 07:48:18;;;;;;;14.07;2.72;;;14.60;99.90;;;;;;7407585;19;19910;-75
2023/03/17 07:50:44;;;;;;;14.35;2.60;;;14.80;99.90;;;;;;7407479;19;19990;-76
2023/03/17 07:53:11;;;;;;;13.05;2.80;;;14.90;99.90;;;;;;7406938;19;19928;-74
2023/03/17 07:55:37;;;;;;;9.90;2.78;;;15.10;99.90;;;;;;7407997;19;19914;-74
2023/03/17 07:58:04;;;;;;;12.43;2.40;;;15.10;99.90;;;;;;7407176;19;19921;-74
2023/03/17 08:00:30;;;;;;;14.25;2.83;;;14.90;99.90;;;;;;7397917;19;19914;-76
2023/03/17 08:02:56;;;;;;;14.32;2.30;;;15.00;99.90;;;;;;7399553;19;19910;-74
2023/03/17 08:05:23;;;;;;;11.95;2.75;;;15.00;99.90;;;;;;7395709;19;19938;-78
2023/03/17 08:07:49;;;;;;;11.63;2.97;;;15.20;99.90;;;;;;7400478;19;19919;-76
2023/03/17 08:10:15;;;;;;;17.40;2.88;;;15.20;99.90;;;;;;7399236;19;19915;-76
2023/03/17 08:12:41;;;;;;;16.85;2.38;;;15.10;99.90;;;;;;7395351;19;19914;-77
2023/03/17 08:15:08;;;;;;;17.48;2.90;;;15.10;99.90;;;;;;7363901;19;19913;-76
2023/03/17 08:17:36;;;;;;;15.45;2.28;;;15.00;99.90;;;;;;7399906;19;20815;-76
2023/03/17 08:20:03;;;;;;;11.63;2.15;;;14.80;99.90;;;;;;7399594;19;19918;-76
2023/03/17 08:22:30;;;;;;;13.73;2.58;;;14.90;99.90;;;;;;7406492;19;19918;-75
2023/03/17 08:24:56;;;;;;;12.10;2.47;;;15.20;99.90;;;;;;7409070;19;19919;-76
2023/03/17 08:27:22;;;;;;;13.65;2.33;;;15.50;99.90;;;;;;7387966;19;20022;-76
2023/03/17 08:29:48;;;;;;;15.77;2.28;;;15.70;99.90;;;;;;7407058;19;19931;-77
2023/03/17 08:32:14;;;;;;;14.80;2.50;;;15.80;99.90;;;;;;7399032;19;19919;-76
2023/03/17 08:34:40;;;;;;;11.98;1.90;;;16.00;99.90;;;;;;7405742;19;19922;-75
2023/03/17 08:37:09;;;;;;;12.93;2.75;;;16.20;99.90;;;;;;7396084;19;19919;-74
2023/03/17 08:39:36;;;;;;;48.92;21.40;;;16.60;99.20;;;;;;7404068;19;19932;-76
2023/03/17 08:42:02;;;;;;;;;;;16.40;99.00;;;;;;7410085;19;19926;-76
2023/03/17 08:44:28;;;;;;;12.95;2.60;;;16.10;99.30;;;;;;7403566;19;19945;-77
2023/03/17 08:46:55;;;;;;;11.20;2.28;;;15.80;99.90;;;;;;7397922;19;19922;-77
2023/03/17 08:49:22;;;;;;;10.07;2.08;;;15.60;99.90;;;;;;7401687;19;19910;-77
2023/03/17 08:51:48;;;;;;;13.80;2.58;;;15.60;99.90;;;;;;7407823;19;19915;-77
2023/03/17 08:54:14;;;;;;;12.85;2.42;;;15.60;99.90;;;;;;7401569;19;20343;-75
2023/03/17 08:56:41;;;;;;;9.50;2.83;;;15.80;99.90;;;;;;7401577;19;19911;-75
2023/03/17 08:59:08;;;;;;;13.70;2.40;;;16.00;99.90;;;;;;7401923;19;19915;-76
2023/03/17 09:01:34;;;;;;;16.58;3.28;;;16.10;99.60;;;;;;7393777;19;20024;-75
2023/03/17 09:04:01;;;;;;;11.00;2.35;;;16.30;99.60;;;;;;7402286;19;19907;-76
2023/03/17 09:06:27;;;;;;;11.85;1.80;;;16.40;99.20;;;;;;7408617;19;19919;-75
2023/03/17 09:08:54;;;;;;;13.32;2.10;;;16.60;98.70;;;;;;7414255;19;19918;-76
2023/03/17 09:11:26;;;;;;;10.32;2.05;;;16.80;98.20;;;;;;7410393;19;19978;-75
2023/03/17 09:13:52;;;;;;;11.57;2.97;;;17.20;97.50;;;;;;7414370;19;19934;-77
2023/03/17 09:16:18;;;;;;;10.57;2.10;;;17.30;97.00;;;;;;7409651;19;19926;-77
2023/03/17 09:18:45;;;;;;;9.60;1.77;;;17.10;96.80;;;;;;7359698;19;20279;-80
2023/03/17 09:21:13;;;;;;;10.77;2.05;;;17.00;96.70;;;;;;7402461;19;19914;-77
2023/03/17 09:23:40;;;;;;;10.23;1.77;;;16.80;97.10;;;;;;7411319;19;19911;-76
2023/03/17 09:26:05;;;;;;;;;;;16.70;97.10;;;;;;7412004;19;20482;-79
2023/03/17 09:28:32;;;;;;;12.20;1.73;;;16.50;97.00;;;;;;7411057;19;19906;-76
2023/03/17 09:31:01;;;;;;;12.95;1.90;;;16.50;97.20;;;;;;7410073;19;19929;-75
2023/03/17 09:33:28;;;;;;;12.50;1.80;;;16.40;97.80;;;;;;7408953;19;19923;-75
2023/03/17 09:35:57;;;;;;;12.88;2.15;;;16.50;97.60;;;;;;7410761;19;19915;-75
2023/03/17 09:38:25;;;;;;;17.20;6.03;;;16.60;97.40;;;;;;7406201;19;19922;-75
2023/03/17 09:41:01;;;;;;;10.05;1.80;;;16.70;97.60;;;;;;7379247;19;20410;-75
2023/03/17 09:43:48;;;;;;;9.88;2.05;;;17.00;96.90;;;;;;7405079;19;19919;-75
2023/03/17 09:46:39;;;;;;;8.05;1.85;;;17.10;96.40;;;;;;7407751;19;19928;-76
2023/03/17 09:49:10;;;;;;;;;;;17.10;96.20;;;;;;7410681;19;19959;-76
2023/03/17 09:51:37;;;;;;;9.55;1.60;;;17.20;96.20;;;;;;7409032;19;19918;-76
2023/03/17 09:54:16;;;;;;;;;;;17.10;96.30;;;;;;7409229;19;20728;-76
2023/03/17 09:56:47;;;;;;;9.82;1.95;;;17.40;95.90;;;;;;7410339;19;20340;-75
2023/03/17 09:59:35;;;;;;;15.35;2.05;;;17.40;95.40;;;;;;7408219;19;19918;-74
2023/03/17 10:02:01;;;;;;;13.02;2.58;;;17.30;95.30;;;;;;7408528;19;19922;-75
2023/03/17 10:04:29;;;;;;;9.40;1.80;;;17.20;95.60;;;;;;7409527;19;19926;-76
2023/03/17 10:07:05;;;;;;;16.42;2.47;;;17.00;95.80;;;;;;7405934;19;19929;-75
2023/03/17 10:09:39;;;;;;;9.85;1.80;;;16.90;96.30;;;;;;7406549;19;19999;-76
2023/03/17 10:12:36;;;;;;;13.48;1.90;;;17.00;96.50;;;;;;7407165;19;19915;-76
2023/03/17 10:15:10;;;;;;;11.25;1.45;;;16.90;96.30;;;;;;7407527;19;19915;-76
2023/03/17 10:17:40;;;;;;;11.68;2.13;;;16.70;96.50;;;;;;7405764;19;19922;-76
2023/03/17 10:20:16;;;;;;;8.80;1.40;;;16.90;96.70;;;;;;7405227;19;19918;-75
2023/03/17 10:22:52;;;;;;;12.55;2.58;;;17.10;96.20;;;;;;7408015;19;19922;-75
2023/03/17 10:25:21;;;;;;;14.93;1.80;;;16.70;96.70;;;;;;7405353;19;19943;-76
2023/03/17 10:27:58;;;;;;;10.38;1.98;;;16.80;96.60;;;;;;7402875;19;20350;-76
2023/03/17 10:30:25;;;;;;;16.38;2.42;;;16.60;96.70;;;;;;7404217;19;19915;-75
2023/03/17 10:32:54;;;;;;;11.32;1.80;;;16.60;97.10;;;;;;7407408;19;20462;-76
2023/03/17 10:35:22;;;;;;;9.13;1.42;;;16.40;96.50;;;;;;7400988;19;19918;-76
2023/03/17 10:37:48;;;;;;;13.98;2.85;;;16.50;96.70;;;;;;7407585;19;19919;-76
2023/03/17 10:40:29;;;;;;;11.90;2.08;;;16.70;96.70;;;;;;7403097;19;19925;-76
2023/03/17 10:43:07;;;;;;;12.43;2.10;;;17.10;96.40;;;;;;7405984;19;19915;-77
2023/03/17 10:45:40;;;;;;;14.98;1.95;;;17.30;95.70;;;;;;7403857;19;19955;-77
2023/03/17 10:48:15;;;;;;;10.07;2.03;;;17.20;95.50;;;;;;7400466;19;19915;-75
2023/03/17 10:50:41;;;;;;;13.73;1.90;;;17.20;95.60;;;;;;7406024;19;20331;-79
2023/03/17 10:53:17;;;;;;;15.13;2.25;;;17.30;95.70;;;;;;7402727;19;19918;-76
2023/03/17 10:55:51;;;;;;;11.43;1.80;;;17.20;95.80;;;;;;7403660;19;19918;-75
2023/03/17 10:58:31;;;;;;;12.35;1.90;;;17.00;95.70;;;;;;7402777;19;19927;-76
2023/03/17 11:01:04;;;;;;;11.27;1.70;;;17.10;95.80;;;;;;7403749;19;19947;-77
2023/03/17 11:03:34;;;;;;;10.43;1.80;;;17.20;95.50;;;;;;7401296;19;19966;-74
2023/03/17 11:06:07;;;;;;;17.73;2.35;;;17.30;95.70;;;;;;7395874;19;19924;-75
2023/03/17 11:08:54;;;;;;;12.38;1.98;;;17.60;95.30;;;;;;7400732;19;19918;-74
2023/03/17 11:11:29;;;;;;;10.20;1.63;;;17.80;94.50;;;;;;7399718;19;19914;-74
2023/03/17 11:14:12;;;;;;;9.70;1.83;;;17.80;94.00;;;;;;7404349;19;19922;-74
2023/03/17 11:16:59;;;;;;;16.25;1.77;;;17.70;94.70;;;;;;7402778;19;19978;-75
2023/03/17 11:19:41;;;;;;;9.38;1.80;;;17.60;95.10;;;;;;7400537;19;19930;-75
2023/03/17 11:22:29;;;;;;;14.70;2.50;;;17.70;95.30;;;;;;7400230;19;19915;-75
2023/03/17 11:25:18;;;;;;;14.10;1.90;;;17.70;94.90;;;;;;7402704;19;20271;-75
2023/03/17 11:27:48;;;;;;;12.68;2.35;;;18.00;94.70;;;;;;7398146;19;19918;-74
2023/03/17 11:30:35;;;;;;;12.30;1.70;;;18.80;94.30;;;;;;7398801;19;19952;-75
2023/03/17 11:33:28;;;;;;;11.48;2.15;;;19.50;92.00;;;;;;7402999;19;20402;-74
2023/03/17 11:36:14;;;;;;;13.38;2.30;;;21.30;88.90;;;;;;7400071;19;20327;-74
2023/03/17 11:39:12;;;;;;;9.52;1.77;;;22.60;82.70;;;;;;7401520;19;19911;-75
2023/03/17 11:41:58;;;;;;;8.93;2.38;;;21.00;83.60;;;;;;7395356;19;19922;-76
2023/03/17 11:44:46;;;;;;;11.07;2.65;;;21.30;85.30;;;;;;7396153;19;19922;-74
2023/03/17 11:47:41;;;;;;;12.35;2.50;;;21.00;85.20;;;;;;7398641;19;19921;-75
2023/03/17 11:50:33;;;;;;;13.23;2.67;;;20.10;86.30;;;;;;7398890;19;19925;-74
2023/03/17 11:53:10;;;;;;;11.32;1.90;;;19.90;87.60;;;;;;7402311;19;20256;-75
2023/03/17 11:55:45;;;;;;;12.00;2.22;;;19.60;88.80;;;;;;7398452;19;19921;-74
2023/03/17 11:58:22;;;;;;;10.23;1.95;;;19.20;89.60;;;;;;7395570;19;19906;-75
2023/03/17 12:00:59;;;;;;;12.18;2.08;;;19.00;90.30;;;;;;7404378;19;20298;-75
2023/03/17 12:03:40;;;;;;;10.23;2.03;;;18.70;91.00;;;;;;7405235;19;19978;-73
2023/03/17 12:06:14;;;;;;;15.93;2.35;;;18.30;91.60;;;;;;7404579;19;19918;-74
2023/03/17 12:09:06;;;;;;;15.32;2.53;;;18.20;91.40;;;;;;7406062;19;19919;-75
2023/03/17 12:11:38;;;;;;;11.13;2.17;;;18.30;91.20;;;;;;7400813;19;19918;-75
2023/03/17 12:14:12;;;;;;;10.45;1.83;;;18.60;90.70;;;;;;7406420;19;20342;-79
2023/03/17 12:17:00;;;;;;;13.32;2.50;;;18.60;90.80;;;;;;7404321;19;19938;-75
2023/03/17 12:19:32;;;;;;;13.18;2.15;;;20.30;87.80;;;;;;7399985;19;19944;-74
2023/03/17 12:22:16;;;;;;;;;;;20.00;86.90;;;;;;7403119;19;20351;-75
2023/03/17 12:24:53;;;;;;;12.27;3.30;;;19.50;86.90;;;;;;7404349;19;19954;-74
2023/03/17 12:27:35;;;;;;;13.43;2.00;;;19.30;87.60;;;;;;7406938;19;19919;-74
2023/03/17 12:30:44;;;;;;;12.57;2.10;;;19.30;88.50;;;;;;7407240;19;19921;-74
2023/03/17 12:33:35;;;;;;;13.32;1.90;;;19.60;86.20;;;;;;7398359;19;19922;-74
2023/03/17 12:36:03;;;;;;;10.55;2.00;;;19.50;85.80;;;;;;7404043;19;19991;-73
2023/03/17 12:38:38;;;;;;;15.32;2.33;;;19.50;86.40;;;;;;7406815;19;19967;-74
2023/03/17 12:41:19;;;;;;;11.13;2.17;;;19.30;87.20;;;;;;7401953;19;19918;-73
2023/03/17 12:44:00;;;;;;;12.95;2.55;;;19.40;87.60;;;;;;7401453;19;19986;-75
2023/03/17 12:47:06;;;;;;;13.45;2.42;;;19.70;86.50;;;;;;7387742;19;19922;-74
2023/03/17 12:49:48;;;;;;;13.15;2.83;;;20.50;84.40;;;;;;7397952;19;19910;-74
2023/03/17 12:52:55;;;;;;;12.13;2.92;;;20.60;83.30;;;;;;7404232;19;19939;-75
2023/03/17 12:55:26;;;;;;;13.35;2.92;;;20.90;83.00;;;;;;7399345;19;19942;-74
2023/03/17 12:58:16;;;;;;;12.57;2.60;;;20.80;82.20;;;;;;7400300;19;20219;-76
2023/03/17 13:01:13;;;;;;;15.38;2.85;;;20.60;82.20;;;;;;7404892;19;20521;-74
2023/03/17 13:03:57;;;;;;;12.55;2.00;;;20.20;83.00;;;;;;7403403;19;19980;-75